sensor_id;sensor_type;location;lat;lon;timestamp;pressure;altitude;pressure_sealevel;temperature;humidity
54459;BME280;40368;49.350;8.152;2023-07-30T00:00:48;996.6;;;25.9;53.9
54459;BME280;40368;49.350;8.152;2023-07-30T00:01:46;996.6;;;25.88;54.09
54459;BME280;40368;49.350;8.152;2023-07-30T00:02:47;996.6;;;25.86;53.93
54459;BME280;40368;49.350;8.152;2023-07-30T00:03:46;996.7;;;25.86;53.7
54459;BME280;40368;49.350;8.152;2023-07-30T00:04:46;996.7;;;25.85;53.94
54459;BME280;40368;49.350;8.152;2023-07-30T00:05:51;996.6;;;25.84;53.39
54459;BME280;40368;49.350;8.152;2023-07-30T00:06:46;996.7;;;25.85;53.52
54459;BME280;40368;49.350;8.152;2023-07-30T00:07:47;996.7;;;25.83;53.46
54459;BME280;40368;49.350;8.152;2023-07-30T00:08:46;996.7;;;25.82;53.12
54459;BME280;40368;49.350;8.152;2023-07-30T00:09:46;996.7;;;25.81;53.4
54459;BME280;40368;49.350;8.152;2023-07-30T00:10:46;996.7;;;25.78;53.18
54459;BME280;40368;49.350;8.152;2023-07-30T00:11:46;996.7;;;25.78;53.25
54459;BME280;40368;49.350;8.152;2023-07-30T00:12:46;996.6;;;25.78;52.77
54459;BME280;40368;49.350;8.152;2023-07-30T00:13:46;996.6;;;25.74;53.94
54459;BME280;40368;49.350;8.152;2023-07-30T00:14:46;996.7;;;25.66;53.94
54459;BME280;40368;49.350;8.152;2023-07-30T00:15:46;996.6;;;25.56;54.14
54459;BME280;40368;49.350;8.152;2023-07-30T00:16:47;996.6;;;25.48;54.21
54459;BME280;40368;49.350;8.152;2023-07-30T00:17:46;996.6;;;25.39;54.7
54459;BME280;40368;49.350;8.152;2023-07-30T00:18:46;996.6;;;25.34;55.29
54459;BME280;40368;49.350;8.152;2023-07-30T00:19:46;996.6;;;25.27;55.5
54459;BME280;40368;49.350;8.152;2023-07-30T00:20:46;996.7;;;25.23;55.62
54459;BME280;40368;49.350;8.152;2023-07-30T00:21:47;996.7;;;25.18;55.85
54459;BME280;40368;49.350;8.152;2023-07-30T00:22:47;996.7;;;25.14;55.66
54459;BME280;40368;49.350;8.152;2023-07-30T00:23:46;996.7;;;25.07;55.95
54459;BME280;40368;49.350;8.152;2023-07-30T00:24:46;996.7;;;25.02;55.77
54459;BME280;40368;49.350;8.152;2023-07-30T00:25:46;996.7;;;24.95;55.98
54459;BME280;40368;49.350;8.152;2023-07-30T00:26:46;996.8;;;24.9;56.09
54459;BME280;40368;49.350;8.152;2023-07-30T00:27:46;996.8;;;24.88;56.03
54459;BME280;40368;49.350;8.152;2023-07-30T00:28:46;996.8;;;24.81;56.24
54459;BME280;40368;49.350;8.152;2023-07-30T00:29:46;996.8;;;24.78;56.37
54459;BME280;40368;49.350;8.152;2023-07-30T00:30:46;996.8;;;24.74;56.57
54459;BME280;40368;49.350;8.152;2023-07-30T00:31:46;996.8;;;24.69;56.36
54459;BME280;40368;49.350;8.152;2023-07-30T00:32:46;996.8;;;24.66;56.76
54459;BME280;40368;49.350;8.152;2023-07-30T00:33:46;996.8;;;24.63;56.46
54459;BME280;40368;49.350;8.152;2023-07-30T00:34:46;996.8;;;24.64;56.51
54459;BME280;40368;49.350;8.152;2023-07-30T00:35:46;996.8;;;24.69;56.81
54459;BME280;40368;49.350;8.152;2023-07-30T00:36:46;996.8;;;24.72;56.72
54459;BME280;40368;49.350;8.152;2023-07-30T00:37:46;996.8;;;24.77;56.29
54459;BME280;40368;49.350;8.152;2023-07-30T00:38:46;996.8;;;24.83;56.4
54459;BME280;40368;49.350;8.152;2023-07-30T00:39:46;996.7;;;24.88;56.29
54459;BME280;40368;49.350;8.152;2023-07-30T00:40:46;996.7;;;24.94;56.06
54459;BME280;40368;49.350;8.152;2023-07-30T00:41:46;996.7;;;24.98;56.12
54459;BME280;40368;49.350;8.152;2023-07-30T00:42:46;996.7;;;25.03;55.59
54459;BME280;40368;49.350;8.152;2023-07-30T00:43:46;996.7;;;25.08;55.64
54459;BME280;40368;49.350;8.152;2023-07-30T00:44:46;996.7;;;25.13;55.32
54459;BME280;40368;49.350;8.152;2023-07-30T00:45:46;996.7;;;25.19;55.41
54459;BME280;40368;49.350;8.152;2023-07-30T00:46:46;996.7;;;25.21;55.35
54459;BME280;40368;49.350;8.152;2023-07-30T00:47:52;996.7;;;25.25;55.06
54459;BME280;40368;49.350;8.152;2023-07-30T00:48:46;996.7;;;25.27;54.99
54459;BME280;40368;49.350;8.152;2023-07-30T00:49:46;996.7;;;25.26;54.73
54459;BME280;40368;49.350;8.152;2023-07-30T00:50:46;996.8;;;25.25;54.4
54459;BME280;40368;49.350;8.152;2023-07-30T00:51:47;996.7;;;25.25;54.52
54459;BME280;40368;49.350;8.152;2023-07-30T00:52:46;996.7;;;25.27;54.27
54459;BME280;40368;49.350;8.152;2023-07-30T00:53:46;996.7;;;25.3;54.51
54459;BME280;40368;49.350;8.152;2023-07-30T00:54:46;996.8;;;25.32;54.38
54459;BME280;40368;49.350;8.152;2023-07-30T00:55:46;996.8;;;25.36;54.26
54459;BME280;40368;49.350;8.152;2023-07-30T00:56:48;996.7;;;25.38;54.15
54459;BME280;40368;49.350;8.152;2023-07-30T00:57:46;996.8;;;25.35;53.66
54459;BME280;40368;49.350;8.152;2023-07-30T00:58:46;996.7;;;25.34;53.98
54459;BME280;40368;49.350;8.152;2023-07-30T00:59:47;996.8;;;25.36;53.78
54459;BME280;40368;49.350;8.152;2023-07-30T01:00:46;996.8;;;25.38;53.69
54459;BME280;40368;49.350;8.152;2023-07-30T01:01:46;996.8;;;25.4;53.83
54459;BME280;40368;49.350;8.152;2023-07-30T01:02:46;996.9;;;25.42;53.7
54459;BME280;40368;49.350;8.152;2023-07-30T01:03:47;996.9;;;25.41;53.58
54459;BME280;40368;49.350;8.152;2023-07-30T01:04:46;996.9;;;25.42;53.96
54459;BME280;40368;49.350;8.152;2023-07-30T01:05:46;996.9;;;25.4;53.69
54459;BME280;40368;49.350;8.152;2023-07-30T01:06:46;996.9;;;25.4;54.02
54459;BME280;40368;49.350;8.152;2023-07-30T01:07:46;996.9;;;25.4;53.64
54459;BME280;40368;49.350;8.152;2023-07-30T01:08:47;996.9;;;25.39;53.84
54459;BME280;40368;49.350;8.152;2023-07-30T01:09:46;996.9;;;25.35;53.83
54459;BME280;40368;49.350;8.152;2023-07-30T01:10:46;996.9;;;25.29;54.05
54459;BME280;40368;49.350;8.152;2023-07-30T01:11:47;997;;;25.31;53.96
54459;BME280;40368;49.350;8.152;2023-07-30T01:12:46;996.9;;;25.29;54.11
54459;BME280;40368;49.350;8.152;2023-07-30T01:13:46;996.9;;;25.3;54.24
54459;BME280;40368;49.350;8.152;2023-07-30T01:14:51;996.9;;;25.31;53.89
54459;BME280;40368;49.350;8.152;2023-07-30T01:15:46;996.8;;;25.3;53.95
54459;BME280;40368;49.350;8.152;2023-07-30T01:16:46;996.9;;;25.29;53.96
54459;BME280;40368;49.350;8.152;2023-07-30T01:17:46;996.8;;;25.32;54.01
54459;BME280;40368;49.350;8.152;2023-07-30T01:18:46;996.9;;;25.32;53.93
54459;BME280;40368;49.350;8.152;2023-07-30T01:19:46;996.9;;;25.31;53.65
54459;BME280;40368;49.350;8.152;2023-07-30T01:20:46;996.9;;;25.32;53.62
54459;BME280;40368;49.350;8.152;2023-07-30T01:21:46;996.9;;;25.34;53.93
54459;BME280;40368;49.350;8.152;2023-07-30T01:22:46;997;;;25.35;53.95
54459;BME280;40368;49.350;8.152;2023-07-30T01:23:46;997;;;25.37;53.79
54459;BME280;40368;49.350;8.152;2023-07-30T01:24:46;997;;;25.4;53.69
54459;BME280;40368;49.350;8.152;2023-07-30T01:25:46;996.9;;;25.4;53.58
54459;BME280;40368;49.350;8.152;2023-07-30T01:26:48;997;;;25.43;53.79
54459;BME280;40368;49.350;8.152;2023-07-30T01:27:47;997;;;25.41;53.62
54459;BME280;40368;49.350;8.152;2023-07-30T01:28:48;997;;;25.4;53.58
54459;BME280;40368;49.350;8.152;2023-07-30T01:29:49;997;;;25.37;53.68
54459;BME280;40368;49.350;8.152;2023-07-30T01:30:46;997;;;25.35;53.78
54459;BME280;40368;49.350;8.152;2023-07-30T01:31:46;997;;;25.35;53.94
54459;BME280;40368;49.350;8.152;2023-07-30T01:32:46;997;;;25.34;54.24
54459;BME280;40368;49.350;8.152;2023-07-30T01:33:46;997;;;25.28;53.86
54459;BME280;40368;49.350;8.152;2023-07-30T01:34:46;997;;;25.28;53.91
54459;BME280;40368;49.350;8.152;2023-07-30T01:35:46;996.9;;;25.28;54.14
54459;BME280;40368;49.350;8.152;2023-07-30T01:36:46;997;;;25.26;54.33
54459;BME280;40368;49.350;8.152;2023-07-30T01:37:46;997;;;25.26;54.16
54459;BME280;40368;49.350;8.152;2023-07-30T01:38:46;997;;;25.24;54.33
54459;BME280;40368;49.350;8.152;2023-07-30T01:39:46;996.9;;;25.17;54.36
54459;BME280;40368;49.350;8.152;2023-07-30T01:41:45;996.9;;;25.16;54.4
54459;BME280;40368;49.350;8.152;2023-07-30T01:42:46;996.9;;;25.15;54.45
54459;BME280;40368;49.350;8.152;2023-07-30T01:43:46;996.9;;;25.11;54.45
54459;BME280;40368;49.350;8.152;2023-07-30T01:44:47;996.9;;;25.12;54.51
54459;BME280;40368;49.350;8.152;2023-07-30T01:45:46;997;;;25.13;54.54
54459;BME280;40368;49.350;8.152;2023-07-30T01:46:46;997;;;25.14;54.55
54459;BME280;40368;49.350;8.152;2023-07-30T01:47:46;997;;;25.12;54.37
54459;BME280;40368;49.350;8.152;2023-07-30T01:48:46;997;;;25.13;54.23
54459;BME280;40368;49.350;8.152;2023-07-30T01:49:46;997;;;25.18;54.23
54459;BME280;40368;49.350;8.152;2023-07-30T01:50:46;997;;;25.2;54.35
54459;BME280;40368;49.350;8.152;2023-07-30T01:51:46;997;;;25.2;54.09
54459;BME280;40368;49.350;8.152;2023-07-30T01:52:46;997;;;25.22;54.37
54459;BME280;40368;49.350;8.152;2023-07-30T01:53:46;997;;;25.24;54.18
54459;BME280;40368;49.350;8.152;2023-07-30T01:54:46;997;;;25.25;54.06
54459;BME280;40368;49.350;8.152;2023-07-30T01:55:51;997;;;25.26;53.78
54459;BME280;40368;49.350;8.152;2023-07-30T01:56:46;997.1;;;25.27;53.83
54459;BME280;40368;49.350;8.152;2023-07-30T01:57:47;997.1;;;25.28;53.76
54459;BME280;40368;49.350;8.152;2023-07-30T01:58:46;997;;;25.27;53.81
54459;BME280;40368;49.350;8.152;2023-07-30T01:59:46;997.1;;;25.28;53.76
54459;BME280;40368;49.350;8.152;2023-07-30T02:00:46;997.1;;;25.26;53.92
54459;BME280;40368;49.350;8.152;2023-07-30T02:01:46;997.1;;;25.25;53.95
54459;BME280;40368;49.350;8.152;2023-07-30T02:02:46;997.1;;;25.25;53.9
54459;BME280;40368;49.350;8.152;2023-07-30T02:03:47;997.1;;;25.25;53.86
54459;BME280;40368;49.350;8.152;2023-07-30T02:04:47;997.1;;;25.24;53.88
54459;BME280;40368;49.350;8.152;2023-07-30T02:05:46;997.1;;;25.23;54.03
54459;BME280;40368;49.350;8.152;2023-07-30T02:06:46;997.1;;;25.22;53.81
54459;BME280;40368;49.350;8.152;2023-07-30T02:07:46;997.2;;;25.2;53.92
54459;BME280;40368;49.350;8.152;2023-07-30T02:08:47;997.1;;;25.18;53.99
54459;BME280;40368;49.350;8.152;2023-07-30T02:09:46;997.2;;;25.16;54.22
54459;BME280;40368;49.350;8.152;2023-07-30T02:10:54;997.1;;;25.15;54.25
54459;BME280;40368;49.350;8.152;2023-07-30T02:11:46;997.1;;;25.14;54.11
54459;BME280;40368;49.350;8.152;2023-07-30T02:12:46;997.1;;;25.14;54.07
54459;BME280;40368;49.350;8.152;2023-07-30T02:13:45;997.1;;;25.14;54.24
54459;BME280;40368;49.350;8.152;2023-07-30T02:14:47;997.1;;;25.15;54.18
54459;BME280;40368;49.350;8.152;2023-07-30T02:15:46;997;;;25.15;54
54459;BME280;40368;49.350;8.152;2023-07-30T02:16:46;997.1;;;25.16;54.03
54459;BME280;40368;49.350;8.152;2023-07-30T02:17:46;997;;;25.16;54.13
54459;BME280;40368;49.350;8.152;2023-07-30T02:18:46;997;;;25.16;54.12
54459;BME280;40368;49.350;8.152;2023-07-30T02:19:46;997;;;25.13;54.21
54459;BME280;40368;49.350;8.152;2023-07-30T02:20:46;997;;;25.11;54.22
54459;BME280;40368;49.350;8.152;2023-07-30T02:21:46;997;;;25.12;54.11
54459;BME280;40368;49.350;8.152;2023-07-30T02:22:47;997;;;25.12;54.01
54459;BME280;40368;49.350;8.152;2023-07-30T02:23:47;997;;;25.07;54.35
54459;BME280;40368;49.350;8.152;2023-07-30T02:24:46;997;;;25.04;54.45
54459;BME280;40368;49.350;8.152;2023-07-30T02:25:46;997;;;25.04;54.28
54459;BME280;40368;49.350;8.152;2023-07-30T02:26:46;997;;;25.03;54.37
54459;BME280;40368;49.350;8.152;2023-07-30T02:27:46;997;;;25.01;54.66
54459;BME280;40368;49.350;8.152;2023-07-30T02:28:46;997.1;;;25;54.33
54459;BME280;40368;49.350;8.152;2023-07-30T02:29:46;997.1;;;25;54.57
54459;BME280;40368;49.350;8.152;2023-07-30T02:30:46;997.1;;;24.99;54.82
54459;BME280;40368;49.350;8.152;2023-07-30T02:31:47;997.1;;;24.98;54.95
54459;BME280;40368;49.350;8.152;2023-07-30T02:32:46;997.1;;;24.98;54.7
54459;BME280;40368;49.350;8.152;2023-07-30T02:33:46;997.1;;;24.99;54.49
54459;BME280;40368;49.350;8.152;2023-07-30T02:34:46;997.1;;;25;54.52
54459;BME280;40368;49.350;8.152;2023-07-30T02:35:46;997.1;;;25.01;54.46
54459;BME280;40368;49.350;8.152;2023-07-30T02:36:46;997.1;;;25.02;54.39
54459;BME280;40368;49.350;8.152;2023-07-30T02:37:46;997.1;;;25.03;54.26
54459;BME280;40368;49.350;8.152;2023-07-30T02:38:47;997.2;;;25.04;54.53
54459;BME280;40368;49.350;8.152;2023-07-30T02:39:46;997.2;;;25.03;54.45
54459;BME280;40368;49.350;8.152;2023-07-30T02:40:46;997.3;;;25.02;54.42
54459;BME280;40368;49.350;8.152;2023-07-30T02:41:46;997.3;;;25.01;54.46
54459;BME280;40368;49.350;8.152;2023-07-30T02:42:47;997.3;;;25.01;54.53
54459;BME280;40368;49.350;8.152;2023-07-30T02:43:47;997.4;;;25.02;54.72
54459;BME280;40368;49.350;8.152;2023-07-30T02:44:46;997.4;;;25.01;54.85
54459;BME280;40368;49.350;8.152;2023-07-30T02:46:46;997.4;;;24.96;54.74
54459;BME280;40368;49.350;8.152;2023-07-30T02:47:46;997.4;;;24.94;55.22
54459;BME280;40368;49.350;8.152;2023-07-30T02:48:46;997.4;;;24.91;54.91
54459;BME280;40368;49.350;8.152;2023-07-30T02:49:46;997.4;;;24.93;54.84
54459;BME280;40368;49.350;8.152;2023-07-30T02:50:46;997.3;;;24.93;54.55
54459;BME280;40368;49.350;8.152;2023-07-30T02:51:46;997.3;;;24.94;54.95
54459;BME280;40368;49.350;8.152;2023-07-30T02:52:46;997.4;;;24.96;54.77
54459;BME280;40368;49.350;8.152;2023-07-30T02:53:46;997.3;;;24.97;54.74
54459;BME280;40368;49.350;8.152;2023-07-30T02:54:46;997.3;;;25;54.67
54459;BME280;40368;49.350;8.152;2023-07-30T02:55:46;997.3;;;25.01;54.53
54459;BME280;40368;49.350;8.152;2023-07-30T02:56:46;997.4;;;25.02;54.64
54459;BME280;40368;49.350;8.152;2023-07-30T02:57:46;997.3;;;25.01;54.93
54459;BME280;40368;49.350;8.152;2023-07-30T02:58:46;997.4;;;25.02;54.74
54459;BME280;40368;49.350;8.152;2023-07-30T02:59:46;997.3;;;25.02;54.46
54459;BME280;40368;49.350;8.152;2023-07-30T03:00:46;997.3;;;25.02;54.71
54459;BME280;40368;49.350;8.152;2023-07-30T03:01:46;997.3;;;25.03;54.47
54459;BME280;40368;49.350;8.152;2023-07-30T03:02:46;997.4;;;25.03;54.51
54459;BME280;40368;49.350;8.152;2023-07-30T03:03:46;997.5;;;25.02;54.77
54459;BME280;40368;49.350;8.152;2023-07-30T03:04:46;997.4;;;25.01;54.7
54459;BME280;40368;49.350;8.152;2023-07-30T03:05:46;997.4;;;25.03;54.44
54459;BME280;40368;49.350;8.152;2023-07-30T03:06:46;997.4;;;25.02;54.76
54459;BME280;40368;49.350;8.152;2023-07-30T03:07:46;997.4;;;25.02;54.47
54459;BME280;40368;49.350;8.152;2023-07-30T03:08:46;997.4;;;25.02;54.8
54459;BME280;40368;49.350;8.152;2023-07-30T03:09:46;997.4;;;25.02;54.91
54459;BME280;40368;49.350;8.152;2023-07-30T03:10:46;997.3;;;25.03;54.75
54459;BME280;40368;49.350;8.152;2023-07-30T03:11:46;997.4;;;25.04;54.56
54459;BME280;40368;49.350;8.152;2023-07-30T03:12:46;997.4;;;25.04;54.65
54459;BME280;40368;49.350;8.152;2023-07-30T03:13:46;997.4;;;25.03;54.69
54459;BME280;40368;49.350;8.152;2023-07-30T03:14:47;997.3;;;25.03;54.81
54459;BME280;40368;49.350;8.152;2023-07-30T03:15:47;997.3;;;25.05;54.62
54459;BME280;40368;49.350;8.152;2023-07-30T03:16:46;997.3;;;25.05;54.72
54459;BME280;40368;49.350;8.152;2023-07-30T03:17:46;997.3;;;25.05;54.67
54459;BME280;40368;49.350;8.152;2023-07-30T03:18:46;997.3;;;25.06;54.49
54459;BME280;40368;49.350;8.152;2023-07-30T03:19:46;997.4;;;25.06;54.4
54459;BME280;40368;49.350;8.152;2023-07-30T03:20:46;997.4;;;25.06;54.55
54459;BME280;40368;49.350;8.152;2023-07-30T03:21:46;997.4;;;25.06;54.41
54459;BME280;40368;49.350;8.152;2023-07-30T03:22:46;997.4;;;25.06;54.69
54459;BME280;40368;49.350;8.152;2023-07-30T03:23:46;997.4;;;25.05;54.82
54459;BME280;40368;49.350;8.152;2023-07-30T03:24:46;997.5;;;25.05;54.8
54459;BME280;40368;49.350;8.152;2023-07-30T03:25:46;997.5;;;25.03;54.59
54459;BME280;40368;49.350;8.152;2023-07-30T03:26:47;997.5;;;25.03;54.69
54459;BME280;40368;49.350;8.152;2023-07-30T03:27:46;997.4;;;25.03;54.81
54459;BME280;40368;49.350;8.152;2023-07-30T03:28:47;997.5;;;25.04;54.88
54459;BME280;40368;49.350;8.152;2023-07-30T03:29:47;997.5;;;25.03;54.53
54459;BME280;40368;49.350;8.152;2023-07-30T03:30:46;997.5;;;25.03;54.66
54459;BME280;40368;49.350;8.152;2023-07-30T03:31:47;997.5;;;25.03;54.76
54459;BME280;40368;49.350;8.152;2023-07-30T03:32:47;997.5;;;25.03;54.66
54459;BME280;40368;49.350;8.152;2023-07-30T03:33:46;997.5;;;25.03;54.77
54459;BME280;40368;49.350;8.152;2023-07-30T03:34:47;997.5;;;25.03;54.8
54459;BME280;40368;49.350;8.152;2023-07-30T03:35:46;997.5;;;25.02;54.84
54459;BME280;40368;49.350;8.152;2023-07-30T03:37:46;997.6;;;24.99;54.76
54459;BME280;40368;49.350;8.152;2023-07-30T03:38:46;997.6;;;25;54.93
54459;BME280;40368;49.350;8.152;2023-07-30T03:39:47;997.6;;;25.01;55.2
54459;BME280;40368;49.350;8.152;2023-07-30T03:40:46;997.6;;;25.02;55.16
54459;BME280;40368;49.350;8.152;2023-07-30T03:41:46;997.6;;;25.02;55.4
54459;BME280;40368;49.350;8.152;2023-07-30T03:42:46;997.6;;;25.03;55.87
54459;BME280;40368;49.350;8.152;2023-07-30T03:43:46;997.6;;;25.03;55.83
54459;BME280;40368;49.350;8.152;2023-07-30T03:44:47;997.6;;;25.03;55.97
54459;BME280;40368;49.350;8.152;2023-07-30T03:45:46;997.6;;;25.03;55.72
54459;BME280;40368;49.350;8.152;2023-07-30T03:46:47;997.7;;;25.03;55.85
54459;BME280;40368;49.350;8.152;2023-07-30T03:47:46;997.7;;;25.03;55.86
54459;BME280;40368;49.350;8.152;2023-07-30T03:48:46;997.7;;;25.01;55.67
54459;BME280;40368;49.350;8.152;2023-07-30T03:49:46;997.7;;;25.01;55.71
54459;BME280;40368;49.350;8.152;2023-07-30T03:50:46;997.7;;;25;55.42
54459;BME280;40368;49.350;8.152;2023-07-30T03:51:46;997.7;;;25.01;55.43
54459;BME280;40368;49.350;8.152;2023-07-30T03:52:46;997.7;;;25;55.35
54459;BME280;40368;49.350;8.152;2023-07-30T03:53:47;997.7;;;25;55.63
54459;BME280;40368;49.350;8.152;2023-07-30T03:54:46;997.7;;;25;55.54
54459;BME280;40368;49.350;8.152;2023-07-30T03:55:46;997.7;;;25.01;55.39
54459;BME280;40368;49.350;8.152;2023-07-30T03:56:46;997.7;;;25;55.93
54459;BME280;40368;49.350;8.152;2023-07-30T03:57:46;997.8;;;25.01;55.74
54459;BME280;40368;49.350;8.152;2023-07-30T03:58:46;997.8;;;25.01;55.95
54459;BME280;40368;49.350;8.152;2023-07-30T03:59:46;997.8;;;25;56.19
54459;BME280;40368;49.350;8.152;2023-07-30T04:00:46;997.8;;;24.99;56.4
54459;BME280;40368;49.350;8.152;2023-07-30T04:01:46;997.8;;;24.97;56.07
54459;BME280;40368;49.350;8.152;2023-07-30T04:02:46;997.8;;;24.98;55.22
54459;BME280;40368;49.350;8.152;2023-07-30T04:03:46;997.7;;;24.98;56.18
54459;BME280;40368;49.350;8.152;2023-07-30T04:04:47;997.8;;;24.98;56.41
54459;BME280;40368;49.350;8.152;2023-07-30T04:05:47;997.7;;;24.97;56.56
54459;BME280;40368;49.350;8.152;2023-07-30T04:06:46;997.7;;;24.97;56.55
54459;BME280;40368;49.350;8.152;2023-07-30T04:07:46;997.7;;;24.96;55.95
54459;BME280;40368;49.350;8.152;2023-07-30T04:08:47;997.8;;;24.96;56.1
54459;BME280;40368;49.350;8.152;2023-07-30T04:09:46;997.8;;;24.97;55.89
54459;BME280;40368;49.350;8.152;2023-07-30T04:10:46;997.7;;;24.97;56.26
54459;BME280;40368;49.350;8.152;2023-07-30T04:11:47;997.7;;;24.98;56.52
54459;BME280;40368;49.350;8.152;2023-07-30T04:12:47;997.7;;;24.96;56.58
54459;BME280;40368;49.350;8.152;2023-07-30T04:13:46;997.7;;;24.96;56.07
54459;BME280;40368;49.350;8.152;2023-07-30T04:14:46;997.7;;;24.96;56
54459;BME280;40368;49.350;8.152;2023-07-30T04:15:47;997.6;;;24.96;56
54459;BME280;40368;49.350;8.152;2023-07-30T04:16:46;997.7;;;24.97;56.25
54459;BME280;40368;49.350;8.152;2023-07-30T04:17:46;997.6;;;24.97;55.95
54459;BME280;40368;49.350;8.152;2023-07-30T04:18:46;997.6;;;24.97;56.19
54459;BME280;40368;49.350;8.152;2023-07-30T04:19:46;997.5;;;24.98;55.73
54459;BME280;40368;49.350;8.152;2023-07-30T04:20:47;997.5;;;24.99;55.98
54459;BME280;40368;49.350;8.152;2023-07-30T04:21:46;997.5;;;24.98;56.21
54459;BME280;40368;49.350;8.152;2023-07-30T04:22:46;997.5;;;24.99;56.04
54459;BME280;40368;49.350;8.152;2023-07-30T04:23:46;997.5;;;25.01;55.91
54459;BME280;40368;49.350;8.152;2023-07-30T04:25:48;997.4;;;25;55.79
54459;BME280;40368;49.350;8.152;2023-07-30T04:26:47;997.4;;;25;56.27
54459;BME280;40368;49.350;8.152;2023-07-30T04:27:46;997.5;;;24.98;56.63
54459;BME280;40368;49.350;8.152;2023-07-30T04:28:46;997.6;;;24.97;56.68
54459;BME280;40368;49.350;8.152;2023-07-30T04:29:47;997.7;;;24.92;56.91
54459;BME280;40368;49.350;8.152;2023-07-30T04:30:47;997.7;;;24.86;56.99
54459;BME280;40368;49.350;8.152;2023-07-30T04:31:46;997.7;;;24.79;57.03
54459;BME280;40368;49.350;8.152;2023-07-30T04:32:46;997.8;;;24.75;57.21
54459;BME280;40368;49.350;8.152;2023-07-30T04:33:46;997.8;;;24.73;57.33
54459;BME280;40368;49.350;8.152;2023-07-30T04:34:47;997.9;;;24.75;57
54459;BME280;40368;49.350;8.152;2023-07-30T04:35:46;997.9;;;24.75;56.76
54459;BME280;40368;49.350;8.152;2023-07-30T04:36:46;997.9;;;24.74;57.21
54459;BME280;40368;49.350;8.152;2023-07-30T04:37:46;998;;;24.71;57.1
54459;BME280;40368;49.350;8.152;2023-07-30T04:38:46;997.9;;;24.73;57.15
54459;BME280;40368;49.350;8.152;2023-07-30T04:39:47;997.9;;;24.73;56.69
54459;BME280;40368;49.350;8.152;2023-07-30T04:40:46;997.9;;;24.75;56.5
54459;BME280;40368;49.350;8.152;2023-07-30T04:41:46;998;;;24.77;56.15
54459;BME280;40368;49.350;8.152;2023-07-30T04:42:47;998;;;24.8;56.04
54459;BME280;40368;49.350;8.152;2023-07-30T04:43:46;997.9;;;24.82;56.06
54459;BME280;40368;49.350;8.152;2023-07-30T04:44:46;997.9;;;24.83;55.93
54459;BME280;40368;49.350;8.152;2023-07-30T04:45:47;997.9;;;24.85;56.3
54459;BME280;40368;49.350;8.152;2023-07-30T04:46:46;997.9;;;24.85;56.15
54459;BME280;40368;49.350;8.152;2023-07-30T04:47:46;997.9;;;24.83;56.6
54459;BME280;40368;49.350;8.152;2023-07-30T04:48:46;997.9;;;24.82;56.17
54459;BME280;40368;49.350;8.152;2023-07-30T04:49:46;998;;;24.81;56.39
54459;BME280;40368;49.350;8.152;2023-07-30T04:50:46;997.9;;;24.81;56.09
54459;BME280;40368;49.350;8.152;2023-07-30T04:51:46;997.9;;;24.81;56.05
54459;BME280;40368;49.350;8.152;2023-07-30T04:52:47;998;;;24.8;55.72
54459;BME280;40368;49.350;8.152;2023-07-30T04:53:47;998;;;24.82;55.95
54459;BME280;40368;49.350;8.152;2023-07-30T04:54:47;998;;;24.81;56.32
54459;BME280;40368;49.350;8.152;2023-07-30T04:55:46;998;;;24.81;56.26
54459;BME280;40368;49.350;8.152;2023-07-30T04:56:47;998;;;24.77;56.91
54459;BME280;40368;49.350;8.152;2023-07-30T04:57:46;998;;;24.76;56.36
54459;BME280;40368;49.350;8.152;2023-07-30T04:58:46;998;;;24.77;56.11
54459;BME280;40368;49.350;8.152;2023-07-30T04:59:47;998;;;24.77;56.7
54459;BME280;40368;49.350;8.152;2023-07-30T05:00:46;997.9;;;24.78;56.37
54459;BME280;40368;49.350;8.152;2023-07-30T05:01:46;998;;;24.8;56.44
54459;BME280;40368;49.350;8.152;2023-07-30T05:02:46;997.9;;;24.8;56.11
54459;BME280;40368;49.350;8.152;2023-07-30T05:03:46;997.9;;;24.8;56.34
54459;BME280;40368;49.350;8.152;2023-07-30T05:04:46;998;;;24.8;56.32
54459;BME280;40368;49.350;8.152;2023-07-30T05:05:46;998;;;24.8;56.4
54459;BME280;40368;49.350;8.152;2023-07-30T05:06:46;998;;;24.79;56.29
54459;BME280;40368;49.350;8.152;2023-07-30T05:07:46;998;;;24.78;56.28
54459;BME280;40368;49.350;8.152;2023-07-30T05:08:46;998;;;24.78;56.44
54459;BME280;40368;49.350;8.152;2023-07-30T05:09:47;998;;;24.77;56.24
54459;BME280;40368;49.350;8.152;2023-07-30T05:10:47;998;;;24.78;56.61
54459;BME280;40368;49.350;8.152;2023-07-30T05:11:46;998;;;24.77;56.33
54459;BME280;40368;49.350;8.152;2023-07-30T05:12:46;998;;;24.77;56.6
54459;BME280;40368;49.350;8.152;2023-07-30T05:13:46;998;;;24.76;56.65
54459;BME280;40368;49.350;8.152;2023-07-30T05:14:46;998;;;24.73;56.41
54459;BME280;40368;49.350;8.152;2023-07-30T05:15:46;997.9;;;24.74;56.49
54459;BME280;40368;49.350;8.152;2023-07-30T05:16:46;998;;;24.74;57.25
54459;BME280;40368;49.350;8.152;2023-07-30T05:17:46;998;;;24.73;56.57
54459;BME280;40368;49.350;8.152;2023-07-30T05:18:46;998;;;24.72;56.71
54459;BME280;40368;49.350;8.152;2023-07-30T05:19:46;998;;;24.73;56.57
54459;BME280;40368;49.350;8.152;2023-07-30T05:20:46;997.9;;;24.74;56.42
54459;BME280;40368;49.350;8.152;2023-07-30T05:21:46;998;;;24.74;56.46
54459;BME280;40368;49.350;8.152;2023-07-30T05:22:47;997.9;;;24.74;56.34
54459;BME280;40368;49.350;8.152;2023-07-30T05:23:47;997.9;;;24.76;56.3
54459;BME280;40368;49.350;8.152;2023-07-30T05:24:47;997.9;;;24.76;56.22
54459;BME280;40368;49.350;8.152;2023-07-30T05:25:46;997.8;;;24.76;56.36
54459;BME280;40368;49.350;8.152;2023-07-30T05:26:46;997.8;;;24.77;56.73
54459;BME280;40368;49.350;8.152;2023-07-30T05:27:46;997.8;;;24.76;56.39
54459;BME280;40368;49.350;8.152;2023-07-30T05:28:46;997.8;;;24.77;56.52
54459;BME280;40368;49.350;8.152;2023-07-30T05:29:46;997.7;;;24.77;56.77
54459;BME280;40368;49.350;8.152;2023-07-30T05:30:47;997.6;;;24.77;56.58
54459;BME280;40368;49.350;8.152;2023-07-30T05:31:46;997.7;;;24.79;56.36
54459;BME280;40368;49.350;8.152;2023-07-30T05:32:46;997.6;;;24.78;56.68
54459;BME280;40368;49.350;8.152;2023-07-30T05:33:45;997.7;;;24.78;56.68
54459;BME280;40368;49.350;8.152;2023-07-30T05:34:46;997.7;;;24.79;56.56
54459;BME280;40368;49.350;8.152;2023-07-30T05:35:46;997.7;;;24.79;56.48
54459;BME280;40368;49.350;8.152;2023-07-30T05:36:46;997.7;;;24.8;57
54459;BME280;40368;49.350;8.152;2023-07-30T05:37:46;997.7;;;24.8;57.05
54459;BME280;40368;49.350;8.152;2023-07-30T05:38:47;997.6;;;24.79;57.1